Time;durP1;ratioP1;P1;durP2;ratioP2;P2;SDS_P1;SDS_P2;PMS_P1;PMS_P2;Temp;Humidity;BMP_temperature;BMP_pressure;BME280_temperature;BME280_humidity;BME280_pressure;Samples;Min_cycle;Max_cycle;Signal;HPM_P1;HPM_P2
2022/06/03 00:01:27;;;;;;;1999.90;999.90;;;10.80;1.00;;;;;;5073425;28;20051;-85
2022/06/03 00:04:11;;;;;;;1999.90;999.90;;;10.60;1.00;;;;;;5090565;28;20056;-85
2022/06/03 00:06:42;;;;;;;1999.90;999.90;;;10.50;1.00;;;;;;5073818;28;20044;-85
2022/06/03 00:09:30;;;;;;;1999.90;999.90;;;10.50;1.00;;;;;;5073400;28;20080;-84
2022/06/03 00:12:11;;;;;;;1999.90;999.90;;;10.50;1.00;;;;;;5073698;28;20048;-84
2022/06/03 00:14:48;;;;;;;1999.90;999.90;;;10.50;1.00;;;;;;5073399;28;20423;-84
2022/06/03 00:17:39;;;;;;;1999.90;999.90;;;10.50;1.00;;;;;;5090329;28;20043;-84
2022/06/03 00:20:05;;;;;;;1999.90;999.90;;;10.40;1.00;;;;;;5090322;28;20420;-84
2022/06/03 00:22:42;;;;;;;1999.90;999.90;;;10.40;1.00;;;;;;5073054;28;20059;-84
2022/06/03 00:25:14;;;;;;;1999.90;999.90;;;10.40;1.00;;;;;;5089850;28;20464;-84
2022/06/03 00:27:56;;;;;;;1999.90;999.90;;;10.30;1.00;;;;;;5089245;28;20052;-84
2022/06/03 00:30:37;;;;;;;1999.90;999.90;;;8.60;1.00;;;;;;5090541;28;20480;-83
2022/06/03 00:33:19;;;;;;;1999.90;999.90;;;10.30;1.00;;;;;;5089844;28;20044;-84
2022/06/03 00:36:12;;;;;;;1999.90;999.90;;;10.20;1.00;;;;;;5089509;28;20551;-84
2022/06/03 00:39:05;;;;;;;1999.90;999.90;;;10.20;1.00;;;;;;5089038;28;20084;-85
2022/06/03 00:42:01;;;;;;;1999.90;999.90;;;10.10;1.00;;;;;;5089743;28;20066;-84
2022/06/03 00:44:44;;;;;;;1999.90;999.90;;;10.10;1.00;;;;;;5090047;28;20127;-84
2022/06/03 00:47:47;;;;;;;1999.90;999.90;;;11.50;4.00;;;;;;5090318;28;20059;-84
2022/06/03 00:50:44;;;;;;;1999.90;999.90;;;10.00;4.20;;;;;;5088755;28;20524;-84
2022/06/03 00:53:47;;;;;;;1999.90;999.90;;;10.00;4.80;;;;;;5071979;28;20320;-84
2022/06/03 00:56:30;;;;;;;1999.90;999.90;;;10.00;6.70;;;;;;5090343;28;20036;-78
2022/06/03 00:59:18;;;;;;;1999.90;999.90;;;10.00;7.40;;;;;;5090761;28;20044;-83
2022/06/03 01:02:19;;;;;;;1999.90;999.90;;;9.90;11.60;;;;;;5087518;28;20386;-80
2022/06/03 01:05:05;;;;;;;1999.90;999.90;;;9.90;13.50;;;;;;5090970;28;20056;-78
2022/06/03 01:07:30;;;;;;;1999.90;999.90;;;9.90;14.80;;;;;;5090208;28;20083;-91
2022/06/03 01:10:06;;;;;;;1999.90;999.90;;;10.90;17.70;;;;;;5091308;28;20542;-87
2022/06/03 01:13:02;;;;;;;1999.90;999.90;;;9.90;18.20;;;;;;5092929;28;20063;-90
2022/06/03 01:15:57;;;;;;;1999.90;999.90;;;9.90;26.60;;;;;;5111295;28;20047;-80
2022/06/03 01:18:47;;;;;;;1999.90;999.90;;;10.60;33.10;;;;;;5110789;28;20061;-81
2022/06/03 01:21:12;;;;;;;1999.90;999.90;;;9.80;34.80;;;;;;5092937;28;20120;-81
2022/06/03 01:24:10;;;;;;;1999.90;999.90;;;10.10;30.40;;;;;;5111019;28;20047;-81
2022/06/03 01:27:14;;;;;;;1999.90;999.90;;;10.80;30.70;;;;;;5111385;28;20043;-86
2022/06/03 01:29:47;;;;;;;1999.90;999.90;;;9.80;30.80;;;;;;5111338;28;20547;-85
2022/06/03 01:32:13;;;;;;;1999.90;999.90;;;10.60;29.80;;;;;;5110704;28;20199;-79
2022/06/03 01:35:23;;;;;;;1999.90;999.90;;;9.80;31.20;;;;;;5111319;28;20088;-81
2022/06/03 01:37:51;;;;;;;1999.90;999.90;;;9.80;30.90;;;;;;5084900;28;20047;-81
2022/06/03 01:40:41;;;;;;;1999.90;999.90;;;10.00;34.50;;;;;;5111224;28;20134;-80
2022/06/03 01:43:22;;;;;;;1999.90;999.90;;;9.70;33.70;;;;;;5092789;28;20073;-84
2022/06/03 01:46:05;;;;;;;1999.90;999.90;;;9.70;34.40;;;;;;5111117;28;20135;-79
2022/06/03 01:48:37;;;;;;;1999.90;999.90;;;9.60;36.20;;;;;;5092829;28;20139;-83
2022/06/03 01:51:34;;;;;;;1999.90;999.90;;;10.30;38.30;;;;;;5110968;28;20349;-80
2022/06/03 01:54:28;;;;;;;1999.90;999.90;;;9.50;40.80;;;;;;5109924;28;20039;-80
2022/06/03 01:57:24;;;;;;;1999.90;999.90;;;9.50;41.20;;;;;;5110655;28;20135;-87
2022/06/03 01:59:50;;;;;;;1999.90;999.90;;;9.50;39.60;;;;;;5109368;28;20077;-80
2022/06/03 02:02:46;;;;;;;1999.90;999.90;;;9.50;40.50;;;;;;5110895;28;20337;-80
2022/06/03 02:05:24;;;;;;;1999.90;999.90;;;9.40;42.70;;;;;;5110965;28;20051;-81
2022/06/03 02:08:18;;;;;;;1999.90;999.90;;;9.40;44.40;;;;;;5076085;28;20318;-82
2022/06/03 02:10:58;;;;;;;1999.90;999.90;;;9.30;48.30;;;;;;5110727;28;20043;-81
2022/06/03 02:13:45;;;;;;;1999.90;999.90;;;9.30;51.20;;;;;;5092929;28;20051;-88
2022/06/03 02:16:38;;;;;;;1999.90;999.90;;;9.30;51.50;;;;;;5114302;28;20500;-84
2022/06/03 02:19:15;;;;;;;1999.90;999.90;;;9.30;53.90;;;;;;5096997;28;20055;-81
2022/06/03 02:22:08;;;;;;;1999.90;999.90;;;9.30;57.60;;;;;;5096336;28;20044;-94
2022/06/03 02:24:52;;;;;;;1999.90;999.90;;;9.30;68.50;;;;;;5114645;28;20480;-83
2022/06/03 02:27:30;;;;;;;1999.90;999.90;;;9.20;69.80;;;;;;5114599;28;20047;-80
2022/06/03 02:30:27;;;;;;;1999.90;999.90;;;9.20;74.30;;;;;;5095587;28;20130;-82
2022/06/03 02:33:11;;;;;;;1999.90;999.90;;;9.20;74.60;;;;;;5114432;28;20528;-80
2022/06/03 02:36:14;;;;;;;1999.90;999.90;;;9.20;77.30;;;;;;5095402;28;20102;-80
2022/06/03 02:39:03;;;;;;;1999.90;999.90;;;9.20;76.00;;;;;;5113725;28;20043;-82
2022/06/03 02:41:38;;;;;;;1999.90;999.90;;;9.20;74.30;;;;;;5096174;28;20116;-81
2022/06/03 02:44:23;;;;;;;1999.90;999.90;;;9.10;76.70;;;;;;5095708;28;20051;-84
2022/06/03 02:47:01;;;;;;;1999.90;999.90;;;9.90;87.60;;;;;;5095255;28;20048;-83
2022/06/03 02:49:45;;;;;;;1999.90;999.90;;;9.30;85.90;;;;;;5113377;28;20066;-82
2022/06/03 02:52:19;;;;;;;1999.90;999.90;;;9.00;84.30;;;;;;5096209;28;20087;-83
2022/06/03 02:54:48;;;;;;;1999.90;999.90;;;9.10;84.80;;;;;;5113223;28;20043;-89
2022/06/03 02:57:33;;;;;;;1999.90;999.90;;;9.10;83.30;;;;;;5114560;28;20488;-81
2022/06/03 03:00:17;;;;;;;1999.90;999.90;;;9.00;84.60;;;;;;5078083;28;20115;-81
2022/06/03 03:03:13;;;;;;;1999.90;999.90;;;9.00;87.20;;;;;;5114467;28;20055;-88
2022/06/03 03:06:00;;;;;;;1999.90;999.90;;;9.00;90.10;;;;;;5096045;28;20109;-82
2022/06/03 03:08:54;;;;;;;1999.90;999.90;;;9.00;89.70;;;;;;5113628;28;20069;-82
2022/06/03 03:11:51;;;;;;;1999.90;999.90;;;9.00;91.70;;;;;;5113669;28;20055;-85
2022/06/03 03:15:05;;;;;;;1999.90;999.90;;;9.00;92.30;;;;;;5078578;28;20084;-81
2022/06/03 03:18:16;;;;;;;1999.90;999.90;;;9.00;92.90;;;;;;5113098;28;20048;-84
2022/06/03 03:20:44;;;;;;;;;;;9.00;94.20;;;;;;5113470;28;20377;-80
2022/06/03 03:23:44;;;;;;;1999.90;999.90;;;9.00;94.90;;;;;;5113248;28;20015;-81
2022/06/03 03:26:36;;;;;;;1999.90;999.90;;;9.00;95.20;;;;;;5094939;28;20058;-81
2022/06/03 03:29:33;;;;;;;1999.90;999.90;;;8.90;95.70;;;;;;5111952;28;20495;-82
2022/06/03 03:32:29;;;;;;;1999.90;999.90;;;8.60;96.80;;;;;;5112697;28;20519;-81
2022/06/03 03:35:39;;;;;;;1999.90;999.90;;;9.00;97.40;;;;;;5112866;28;20052;-80
2022/06/03 03:38:31;;;;;;;1999.90;999.90;;;9.00;97.80;;;;;;5112608;28;20181;-87
2022/06/03 03:41:41;;;;;;;1999.90;999.90;;;9.00;97.80;;;;;;5113440;28;20059;-81
2022/06/03 03:44:55;;;;;;;1999.90;999.90;;;9.10;97.50;;;;;;5112974;28;20043;-81
2022/06/03 03:47:26;;;;;;;1999.90;999.90;;;9.10;99.40;;;;;;5094882;28;20079;-80
2022/06/03 03:50:01;;;;;;;1999.90;999.90;;;9.20;99.90;;;;;;5112787;28;20047;-82
2022/06/03 03:52:48;;;;;;;1999.90;999.90;;;9.50;99.90;;;;;;5113191;28;20047;-83
2022/06/03 03:55:25;;;;;;;1999.90;999.90;;;9.20;99.90;;;;;;5094024;28;20066;-81
2022/06/03 03:58:19;;;;;;;1999.90;999.90;;;9.30;99.90;;;;;;5112723;28;20043;-91
2022/06/03 04:01:00;;;;;;;1999.90;999.90;;;9.40;99.90;;;;;;5112250;28;20055;-81
2022/06/03 04:03:53;;;;;;;1999.90;999.90;;;9.50;99.90;;;;;;5113005;28;20074;-88
2022/06/03 04:06:21;;;;;;;1999.90;999.90;;;9.50;99.90;;;;;;5112823;28;20050;-81
2022/06/03 04:09:06;;;;;;;1999.90;999.90;;;9.50;99.90;;;;;;5113126;28;20126;-81
2022/06/03 04:11:53;;;;;;;1999.90;999.90;;;9.50;99.90;;;;;;5095088;28;20054;-85
2022/06/03 04:14:37;;;;;;;1999.90;999.90;;;9.60;99.90;;;;;;5111531;28;20469;-84
2022/06/03 04:17:25;;;;;;;1999.90;999.90;;;9.60;99.90;;;;;;5112496;28;20051;-81
2022/06/03 04:20:06;;;;;;;1999.90;999.90;;;9.60;99.90;;;;;;5112476;28;20085;-81
2022/06/03 04:22:51;;;;;;;1999.90;999.90;;;9.60;99.90;;;;;;5095112;28;20097;-81
2022/06/03 04:25:41;;;;;;;1999.90;999.90;;;9.60;99.90;;;;;;5112178;28;20134;-80
2022/06/03 04:28:25;;;;;;;1999.90;999.90;;;9.70;99.90;;;;;;5094213;28;20064;-80
2022/06/03 04:30:54;;;;;;;1999.90;999.90;;;9.70;99.90;;;;;;5111536;28;20113;-81
2022/06/03 04:33:51;;;;;;;1999.90;999.90;;;9.70;99.90;;;;;;5112362;28;20070;-80
2022/06/03 04:36:35;;;;;;;1999.90;999.90;;;9.70;99.90;;;;;;5111460;28;20059;-81
2022/06/03 04:39:35;;;;;;;1999.90;999.90;;;9.70;99.90;;;;;;5112182;28;20043;-87
2022/06/03 04:42:03;;;;;;;1999.90;999.90;;;9.80;99.90;;;;;;5110691;28;20050;-86
2022/06/03 04:45:00;;;;;;;1999.90;999.90;;;10.00;99.90;;;;;;5111382;28;20047;-82
2022/06/03 04:48:14;;;;;;;1999.90;999.90;;;9.90;99.90;;;;;;5093816;28;20134;-80
2022/06/03 04:51:13;;;;;;;1999.90;999.90;;;9.90;99.90;;;;;;5089253;28;20051;-81
2022/06/03 04:54:08;;;;;;;1999.90;999.90;;;9.90;99.90;;;;;;5094055;28;20418;-80
2022/06/03 04:57:21;;;;;;;1999.90;999.90;;;10.00;99.90;;;;;;5112702;28;20055;-80
2022/06/03 05:00:25;;;;;;;1999.90;999.90;;;10.00;99.90;;;;;;5037582;28;20518;-81
2022/06/03 05:03:25;;;;;;;1999.90;999.90;;;10.10;99.90;;;;;;5093874;28;20051;-80
2022/06/03 05:06:23;;;;;;;1999.90;999.90;;;10.20;99.90;;;;;;5112500;28;20047;-81
2022/06/03 05:09:08;;;;;;;1999.90;999.90;;;10.50;99.90;;;;;;5093734;28;20468;-80
2022/06/03 05:12:06;;;;;;;1999.90;999.90;;;10.30;99.90;;;;;;5094041;28;20043;-81
2022/06/03 05:14:50;;;;;;;1999.90;999.90;;;10.40;99.90;;;;;;5055793;28;20082;-80
2022/06/03 05:17:52;;;;;;;1999.90;999.90;;;10.50;99.90;;;;;;5092633;28;20079;-82
2022/06/03 05:20:30;;;;;;;1999.90;999.90;;;10.50;99.90;;;;;;5111211;28;20048;-81
2022/06/03 05:22:55;;;;;;;1999.90;999.90;;;10.50;99.90;;;;;;5111898;28;20044;-83
2022/06/03 05:25:49;;;;;;;1999.90;999.90;;;11.70;99.90;;;;;;5111172;28;20096;-81
2022/06/03 05:28:45;;;;;;;1999.90;999.90;;;10.70;99.90;;;;;;5111069;28;20078;-81
2022/06/03 05:31:30;;;;;;;1999.90;999.90;;;10.80;99.90;;;;;;5111567;28;20138;-81
2022/06/03 05:34:19;;;;;;;1999.90;999.90;;;10.80;99.90;;;;;;5111422;28;20134;-82
2022/06/03 05:36:56;;;;;;;1999.90;999.90;;;10.90;99.90;;;;;;5093662;28;20059;-80
2022/06/03 05:39:54;;;;;;;1999.90;999.90;;;10.90;99.90;;;;;;5092934;28;20044;-85
2022/06/03 05:42:29;;;;;;;1999.90;999.90;;;11.00;99.90;;;;;;5093622;28;20044;-81
2022/06/03 05:45:24;;;;;;;1999.90;999.90;;;11.10;99.90;;;;;;5093652;28;20052;-82
2022/06/03 05:48:10;;;;;;;1999.90;999.90;;;11.20;99.90;;;;;;5111623;28;20043;-80
2022/06/03 05:51:06;;;;;;;1999.90;999.90;;;11.90;97.50;;;;;;5111982;28;20044;-81
2022/06/03 05:53:39;;;;;;;1999.90;999.90;;;11.30;95.10;;;;;;5114115;28;20052;-80
2022/06/03 05:56:36;;;;;;;1999.90;999.90;;;11.40;92.60;;;;;;5113731;28;20081;-81
2022/06/03 05:59:07;;;;;;;1999.90;999.90;;;11.50;91.30;;;;;;5113800;28;20127;-80
2022/06/03 06:01:52;;;;;;;1999.90;999.90;;;11.60;90.70;;;;;;5113828;28;20420;-80
2022/06/03 06:04:17;;;;;;;1999.90;999.90;;;11.60;91.30;;;;;;5098936;28;20071;-80
2022/06/03 06:07:16;;;;;;;1999.90;999.90;;;13.00;90.00;;;;;;5115665;28;20097;-80
2022/06/03 06:09:57;;;;;;;1999.90;999.90;;;11.70;86.40;;;;;;5095623;28;20048;-79
2022/06/03 06:12:42;;;;;;;1999.90;999.90;;;11.80;80.80;;;;;;5128561;28;20058;-80
2022/06/03 06:15:45;;;;;;;1999.90;999.90;;;12.00;74.90;;;;;;5125017;28;20048;-81
2022/06/03 06:18:33;;;;;;;1999.90;999.90;;;12.10;67.20;;;;;;5115204;28;20044;-81
2022/06/03 06:21:21;;;;;;;1999.90;999.90;;;12.20;65.10;;;;;;5098519;28;20039;-80
2022/06/03 06:24:05;;;;;;;1999.90;999.90;;;12.30;36.50;;;;;;5093327;28;20146;-81
2022/06/03 06:26:43;;;;;;;1999.90;999.90;;;12.40;36.40;;;;;;5110853;28;20051;-80
2022/06/03 06:29:59;;;;;;;1999.90;999.90;;;13.70;35.30;;;;;;5093318;28;20445;-81
2022/06/03 06:32:51;;;;;;;1999.90;999.90;;;12.60;24.50;;;;;;5111474;28;20051;-81
2022/06/03 06:35:32;;;;;;;1999.90;999.90;;;12.80;20.30;;;;;;5111454;28;20047;-81
2022/06/03 06:38:17;;;;;;;1999.90;999.90;;;12.90;16.10;;;;;;5111727;28;20116;-82
2022/06/03 06:41:03;;;;;;;1999.90;999.90;;;13.00;14.90;;;;;;5093644;28;20083;-81
2022/06/03 06:43:50;;;;;;;1999.90;999.90;;;13.20;12.70;;;;;;5058890;28;20088;-82
2022/06/03 06:46:44;;;;;;;1999.90;999.90;;;13.30;9.10;;;;;;5092406;28;20048;-81
2022/06/03 06:49:22;;;;;;;1999.90;999.90;;;13.40;5.30;;;;;;5110557;28;20044;-78
2022/06/03 06:51:57;;;;;;;1999.90;999.90;;;13.60;2.90;;;;;;5111595;28;20047;-79
2022/06/03 06:54:29;;;;;;;1999.90;999.90;;;13.60;1.00;;;;;;5110487;28;20101;-79
2022/06/03 06:57:04;;;;;;;1999.90;999.90;;;13.80;1.00;;;;;;5093260;28;20124;-80
2022/06/03 06:59:38;;;;;;;1999.90;999.90;;;13.90;1.00;;;;;;5090464;28;20434;-81
2022/06/03 07:02:15;;;;;;;1999.90;999.90;;;14.00;1.00;;;;;;5114144;28;20077;-80
2022/06/03 07:05:10;;;;;;;1999.90;999.90;;;14.20;1.00;;;;;;5114504;28;20127;-80
2022/06/03 07:08:01;;;;;;;1999.90;999.90;;;15.40;1.00;;;;;;5114591;28;20043;-80
2022/06/03 07:10:48;;;;;;;1999.90;999.90;;;17.70;1.00;;;;;;5095460;28;20135;-80
2022/06/03 07:13:38;;;;;;;1999.90;999.90;;;20.00;1.00;;;;;;5095848;28;20059;-83
2022/06/03 07:16:14;;;;;;;1999.90;999.90;;;21.90;1.00;;;;;;5114153;28;20074;-79
2022/06/03 07:22:01;;;;;;;1675.20;980.55;;;24.30;1.00;;;;;;5114138;28;20128;-80
2022/06/03 07:24:49;;;;;;;1521.97;991.30;;;25.50;99.90;;;;;;5113991;28;20134;-81
2022/06/03 07:27:29;;;;;;;901.07;806.70;;;26.40;99.90;;;;;;5096615;28;20056;-81
2022/06/03 07:30:28;;;;;;;714.63;652.15;;;27.00;99.90;;;;;;5114083;28;20043;-80
2022/06/03 07:33:10;;;;;;;562.30;522.50;;;27.10;99.90;;;;;;5007226;28;20089;-80
2022/06/03 07:35:47;;;;;;;280.10;262.35;;;27.70;99.90;;;;;;5095860;28;20402;-80
2022/06/03 07:38:31;;;;;;;483.25;450.88;;;28.30;99.90;;;;;;5113641;28;20043;-80
2022/06/03 07:41:06;;;;;;;533.15;496.58;;;28.60;99.90;;;;;;5113685;28;20492;-80
2022/06/03 07:43:43;;;;;;;475.75;443.52;;;28.70;99.90;;;;;;5113407;28;20058;-80
2022/06/03 07:46:38;;;;;;;583.53;541.55;;;29.40;99.90;;;;;;5114226;28;20403;-81
2022/06/03 07:49:05;;;;;;;487.40;454.58;;;30.00;99.90;;;;;;5112670;28;20083;-80
2022/06/03 07:51:39;;;;;;;559.55;521.10;;;30.40;99.90;;;;;;5113397;28;20550;-82
2022/06/03 07:54:30;;;;;;;457.67;427.20;;;30.70;99.90;;;;;;5113266;28;20104;-80
2022/06/03 07:57:08;;;;;;;362.40;337.58;;;31.00;99.90;;;;;;5113774;28;20039;-82
2022/06/03 07:59:35;;;;;;;;;;;30.80;99.90;;;;;;5094242;28;20047;-81
2022/06/03 08:02:17;;;;;;;378.38;353.35;;;31.10;99.90;;;;;;5113835;28;20279;-82
2022/06/03 08:04:46;;;;;;;609.15;566.50;;;31.20;99.90;;;;;;5113001;28;20048;-80
2022/06/03 08:13:39;;;;;;;535.83;499.25;;;31.20;99.90;;;;;;5050142;28;20441;-80
2022/06/03 08:16:10;;;;;;;644.33;599.58;;;31.90;99.90;;;;;;5113129;28;20494;-81
2022/06/03 08:18:42;;;;;;;657.15;610.55;;;32.20;99.90;;;;;;5113121;28;20044;-80
2022/06/03 08:21:13;;;;;;;673.10;624.28;;;32.30;99.90;;;;;;5095248;28;20079;-81
2022/06/03 08:23:39;;;;;;;587.30;545.47;;;32.60;99.90;;;;;;5112582;28;20533;-81
2022/06/03 08:26:11;;;;;;;278.08;258.60;;;32.80;99.90;;;;;;5112965;28;20043;-80
2022/06/03 08:28:43;;;;;;;753.22;695.75;;;33.00;99.90;;;;;;5112561;28;20485;-81
2022/06/03 08:31:09;;;;;;;726.92;671.45;;;33.30;99.90;;;;;;5112864;28;20385;-82
2022/06/03 08:33:47;;;;;;;594.80;552.08;;;33.50;99.90;;;;;;5094120;28;20059;-82
2022/06/03 08:36:21;;;;;;;;;;;33.70;99.90;;;;;;5061645;28;20090;-81
2022/06/03 08:39:02;;;;;;;677.70;626.78;;;33.90;99.90;;;;;;5111142;28;20286;-83
2022/06/03 08:41:46;;;;;;;522.70;481.92;;;34.20;99.90;;;;;;5112552;28;20159;-81
2022/06/03 08:44:11;;;;;;;668.47;620.10;;;34.20;99.90;;;;;;5112600;28;20040;-80
2022/06/03 08:46:48;;;;;;;682.38;629.38;;;34.10;99.90;;;;;;5112100;28;20126;-80
2022/06/03 08:49:19;;;;;;;786.63;723.58;;;34.60;99.90;;;;;;5094255;28;20052;-80
2022/06/03 08:51:51;;;;;;;850.17;777.97;;;35.10;99.90;;;;;;5111225;28;20122;-79
2022/06/03 08:54:25;;;;;;;811.97;746.45;;;35.40;99.90;;;;;;5110656;28;20122;-82
2022/06/03 08:56:54;;;;;;;721.08;664.25;;;35.60;99.90;;;;;;5111745;28;20457;-81
2022/06/03 08:59:29;;;;;;;646.15;597.33;;;35.80;99.90;;;;;;5110751;28;20035;-81
2022/06/03 09:02:08;;;;;;;580.88;539.25;;;35.90;99.90;;;;;;5112312;28;20047;-80
2022/06/03 09:04:35;;;;;;;552.13;510.83;;;35.30;99.90;;;;;;5111608;28;20043;-80
2022/06/03 09:07:38;;;;;;;567.92;526.13;;;35.10;99.90;;;;;;5112434;28;20048;-79
2022/06/03 09:10:07;;;;;;;562.50;521.90;;;35.10;99.90;;;;;;5091558;28;20043;-79
2022/06/03 09:12:33;;;;;;;804.03;735.75;;;35.20;99.90;;;;;;5111160;28;20055;-82
2022/06/03 09:15:11;;;;;;;707.35;652.47;;;35.60;99.90;;;;;;5092942;28;20051;-81
2022/06/03 09:17:42;;;;;;;614.03;568.67;;;35.90;99.90;;;;;;5111213;28;20051;-79
2022/06/03 09:20:12;;;;;;;706.55;647.78;;;36.00;99.90;;;;;;5111716;28;20043;-81
2022/06/03 09:22:38;;;;;;;656.58;608.72;;;36.20;99.90;;;;;;5092991;28;20040;-79
2022/06/03 09:25:06;;;;;;;668.53;617.40;;;36.30;99.90;;;;;;5111419;28;20051;-82
2022/06/03 09:27:34;;;;;;;742.42;687.67;;;36.50;99.90;;;;;;5111815;28;20051;-84
2022/06/03 09:30:04;;;;;;;709.22;655.50;;;36.50;99.90;;;;;;5111680;28;20171;-86
2022/06/03 09:32:37;;;;;;;747.15;689.53;;;36.70;99.90;;;;;;5093899;28;20070;-81
2022/06/03 09:35:08;;;;;;;694.83;644.67;;;36.70;99.90;;;;;;5093607;28;20370;-84
2022/06/03 09:37:38;;;;;;;689.05;635.97;;;36.50;99.90;;;;;;5111657;28;20051;-82
2022/06/03 09:40:11;;;;;;;715.90;664.22;;;36.40;99.90;;;;;;5111534;28;20079;-79
2022/06/03 09:42:38;;;;;;;711.42;658.33;;;36.40;99.90;;;;;;5111226;28;20040;-79
2022/06/03 09:45:06;;;;;;;601.92;556.90;;;36.70;99.90;;;;;;5111048;28;20050;-80
2022/06/03 09:47:33;;;;;;;638.70;590.95;;;36.90;99.90;;;;;;5093415;28;20368;-80
2022/06/03 09:49:58;;;;;;;656.15;604.90;;;36.90;99.90;;;;;;5092954;28;20189;-79
2022/06/03 09:52:27;;;;;;;701.40;651.25;;;37.10;99.90;;;;;;5111724;28;20555;-79
2022/06/03 09:54:55;;;;;;;681.65;632.85;;;37.10;99.90;;;;;;5110817;28;20160;-80
2022/06/03 09:57:39;;;;;;;662.25;615.03;;;37.40;99.90;;;;;;5111524;28;20141;-79
2022/06/03 10:00:14;;;;;;;610.25;563.65;;;37.40;99.90;;;;;;5110325;28;20078;-79
2022/06/03 10:02:42;;;;;;;776.95;720.42;;;37.30;99.90;;;;;;5092766;28;20132;-80
2022/06/03 10:05:10;;;;;;;707.53;653.50;;;37.50;99.90;;;;;;5111858;28;20100;-80
2022/06/03 10:07:36;;;;;;;707.17;649.22;;;36.70;99.90;;;;;;5111644;28;20063;-87
2022/06/03 10:12:49;;;;;;;787.63;726.75;;;35.30;99.90;;;;;;5095922;28;20079;-80
2022/06/03 10:15:38;;;;;;;825.63;757.78;;;35.90;99.90;;;;;;5111904;28;20480;-80
2022/06/03 10:18:05;;;;;;;;;;;35.40;99.90;;;;;;5112064;28;20047;-79
2022/06/03 10:20:34;;;;;;;797.47;737.20;;;35.90;99.90;;;;;;5111645;28;19927;-81
2022/06/03 10:23:06;;;;;;;696.85;648.85;;;35.70;99.90;;;;;;5093455;28;20048;-85
2022/06/03 10:25:32;;;;;;;784.20;724.67;;;35.20;99.90;;;;;;5093087;28;20460;-81
2022/06/03 10:28:06;;;;;;;825.13;759.05;;;35.30;99.90;;;;;;5110844;28;20039;-80
2022/06/03 10:30:34;;;;;;;576.05;534.90;;;35.00;99.90;;;;;;5093699;28;20134;-82
2022/06/03 10:33:00;;;;;;;669.28;618.63;;;34.70;99.90;;;;;;5092878;28;20047;-87
2022/06/03 10:35:28;;;;;;;729.47;675.28;;;34.30;99.90;;;;;;5093548;28;20076;-81
2022/06/03 10:38:03;;;;;;;747.80;692.53;;;34.60;99.90;;;;;;5114683;28;20056;-79
2022/06/03 10:40:30;;;;;;;800.33;735.95;;;35.20;99.90;;;;;;5115196;28;20071;-79
2022/06/03 10:43:03;;;;;;;735.63;683.42;;;34.60;99.90;;;;;;5114672;28;20044;-80
2022/06/03 10:45:32;;;;;;;772.72;713.25;;;35.00;99.90;;;;;;5096626;28;20400;-80
2022/06/03 10:47:58;;;;;;;811.10;748.72;;;35.70;99.90;;;;;;5114348;28;20092;-81
2022/06/03 10:50:24;;;;;;;859.88;789.17;;;36.10;99.90;;;;;;5115164;28;20056;-79
2022/06/03 11:01:42;;;;;;;828.58;765.65;;;35.60;99.90;;;;;;5114399;28;20534;-81
2022/06/03 11:04:38;;;;;;;733.60;677.05;;;36.00;99.90;;;;;;5096295;28;20126;-81
2022/06/03 11:07:27;;;;;;;663.03;610.38;;;35.90;99.90;;;;;;5096212;28;20052;-81
2022/06/03 11:09:58;;;;;;;764.22;706.75;;;36.80;99.90;;;;;;5114150;28;20336;-80
2022/06/03 11:12:26;;;;;;;837.95;772.55;;;37.20;99.90;;;;;;5096401;28;20055;-80
2022/06/03 11:14:52;;;;;;;720.25;668.55;;;37.60;99.90;;;;;;5113433;28;20048;-80
2022/06/03 11:17:24;;;;;;;753.77;697.00;;;38.10;99.90;;;;;;5114380;28;20488;-79
2022/06/03 11:19:56;;;;;;;828.88;764.55;;;38.50;99.90;;;;;;5095657;28;20055;-79
2022/06/03 11:22:32;;;;;;;774.83;716.15;;;38.80;99.90;;;;;;5096054;28;20043;-82
2022/06/03 11:25:20;;;;;;;828.13;760.87;;;38.50;99.90;;;;;;5113726;28;20047;-80
2022/06/03 11:28:22;;;;;;;868.97;799.33;;;38.40;99.90;;;;;;5113915;28;20507;-86
2022/06/03 11:31:01;;;;;;;771.00;712.20;;;37.40;99.90;;;;;;5096850;28;20055;-83
2022/06/03 11:33:39;;;;;;;818.28;755.58;;;37.20;99.90;;;;;;5095911;28;20097;-79
2022/06/03 11:36:24;;;;;;;897.90;824.15;;;36.60;99.90;;;;;;5095716;28;20059;-81
2022/06/03 11:39:02;;;;;;;804.38;740.67;;;36.40;99.90;;;;;;5113884;28;20471;-81
2022/06/03 11:41:32;;;;;;;904.63;830.10;;;36.70;99.90;;;;;;5114448;28;20429;-80
2022/06/03 11:44:10;;;;;;;894.33;819.40;;;36.60;99.90;;;;;;5113849;28;20051;-89
2022/06/03 11:46:39;;;;;;;918.38;840.08;;;36.80;99.90;;;;;;5113824;28;20076;-80
2022/06/03 11:49:06;;;;;;;964.92;878.80;;;36.90;99.90;;;;;;5113380;28;20043;-80
2022/06/03 11:51:33;;;;;;;962.72;877.75;;;37.00;99.90;;;;;;5113994;28;20055;-80
2022/06/03 11:53:59;;;;;;;848.75;776.25;;;36.20;99.90;;;;;;5112907;28;20139;-81
2022/06/03 11:56:28;;;;;;;724.65;666.67;;;36.40;99.90;;;;;;5114193;28;20090;-80
2022/06/03 11:59:47;;;;;;;923.78;846.33;;;36.70;99.90;;;;;;5094905;28;20057;-87
2022/06/03 12:02:18;;;;;;;760.78;703.08;;;36.00;99.90;;;;;;5061528;28;20223;-90
2022/06/03 12:04:47;;;;;;;699.30;646.38;;;35.30;99.90;;;;;;5113482;28;20101;-82
2022/06/03 12:07:25;;;;;;;583.70;540.30;;;35.50;99.90;;;;;;5095349;28;20464;-79
2022/06/03 12:10:40;;;;;;;772.88;713.80;;;35.10;99.90;;;;;;5112933;28;20499;-83
2022/06/03 12:13:26;;;;;;;837.42;770.38;;;35.00;99.90;;;;;;5009329;28;20132;-81
2022/06/03 12:15:56;;;;;;;617.95;573.95;;;35.00;99.90;;;;;;5113163;28;20100;-81
2022/06/03 12:18:39;;;;;;;735.50;682.67;;;33.70;99.90;;;;;;5113280;28;20077;-80
2022/06/03 12:21:14;;;;;;;439.55;408.52;;;32.50;99.90;;;;;;5112934;28;20066;-79
2022/06/03 12:23:41;;;;;;;620.47;576.55;;;31.60;99.90;;;;;;5113042;28;20468;-80
2022/06/03 12:26:16;;;;;;;409.48;380.70;;;30.80;99.90;;;;;;5113220;28;20052;-80
2022/06/03 12:28:45;;;;;;;622.17;574.65;;;30.20;99.90;;;;;;5078192;28;20048;-82
2022/06/03 12:31:20;;;;;;;626.17;580.22;;;29.40;99.90;;;;;;5094753;28;20039;-79
2022/06/03 12:34:20;;;;;;;273.38;255.90;;;28.90;99.90;;;;;;5112859;28;20043;-80
2022/06/03 12:36:51;;;;;;;605.60;564.20;;;28.40;99.90;;;;;;5113486;28;20130;-79
2022/06/03 12:39:32;;;;;;;447.83;419.35;;;28.10;99.90;;;;;;5112888;28;20044;-80
2022/06/03 12:42:11;;;;;;;425.83;398.17;;;27.70;99.90;;;;;;5112519;28;20052;-83
2022/06/03 12:44:46;;;;;;;418.67;390.98;;;27.40;99.90;;;;;;5112787;28;20048;-80
2022/06/03 12:47:18;;;;;;;457.08;425.88;;;27.00;99.90;;;;;;5112623;28;20229;-80
2022/06/03 12:49:43;;;;;;;498.45;465.70;;;26.90;99.90;;;;;;5113007;28;20403;-80
2022/06/03 12:52:29;;;;;;;971.95;809.70;;;26.40;99.90;;;;;;5112370;28;20130;-80
2022/06/03 12:55:04;;;;;;;444.45;415.88;;;26.20;99.90;;;;;;5111082;28;20134;-80
2022/06/03 12:57:48;;;;;;;537.90;502.00;;;26.00;99.90;;;;;;5094453;28;20048;-80
2022/06/03 13:00:20;;;;;;;588.60;547.10;;;25.80;99.90;;;;;;5110182;28;20054;-80
2022/06/03 13:02:53;;;;;;;679.05;632.25;;;25.50;99.90;;;;;;5112410;28;20567;-79
2022/06/03 13:05:41;;;;;;;585.15;542.97;;;25.40;99.90;;;;;;5112365;28;20047;-79
2022/06/03 13:08:27;;;;;;;417.67;390.92;;;25.30;99.90;;;;;;5092844;28;20055;-79
2022/06/03 13:11:20;;;;;;;1067.18;689.35;;;25.20;99.90;;;;;;5112557;28;20050;-83
2022/06/03 13:13:58;;;;;;;580.42;537.00;;;25.20;99.90;;;;;;5111164;28;20055;-83
2022/06/03 13:16:39;;;;;;;271.95;254.75;;;25.10;99.90;;;;;;5093656;28;20053;-79
2022/06/03 13:19:17;;;;;;;550.13;508.27;;;25.00;99.90;;;;;;5111457;28;20062;-80
2022/06/03 13:21:59;;;;;;;171.27;161.15;;;24.90;99.90;;;;;;5093967;28;20055;-79
2022/06/03 13:24:33;;;;;;;388.13;360.05;;;24.80;99.90;;;;;;5111954;28;20056;-79
2022/06/03 13:27:05;;;;;;;772.40;716.95;;;24.80;99.90;;;;;;5093984;28;20517;-79
2022/06/03 13:29:49;;;;;;;338.88;318.63;;;24.80;99.90;;;;;;5111825;28;20492;-79
2022/06/03 13:32:20;;;;;;;485.88;449.90;;;24.90;99.90;;;;;;5094183;28;20062;-79
2022/06/03 13:34:46;;;;;;;823.22;735.08;;;25.00;99.90;;;;;;5094194;28;20043;-78
2022/06/03 13:37:21;;;;;;;438.98;411.88;;;24.90;99.90;;;;;;5112315;28;20043;-79
2022/06/03 13:39:50;;;;;;;1496.72;819.15;;;24.80;99.90;;;;;;5112067;28;20047;-79